Time;durP1;ratioP1;P1;durP2;ratioP2;P2;SDS_P1;SDS_P2;PMS_P1;PMS_P2;Temp;Humidity;BMP_temperature;BMP_pressure;BME280_temperature;BME280_humidity;BME280_pressure;Samples;Min_cycle;Max_cycle;Signal;HPM_P1;HPM_P2
2023/05/16 00:01:59;;;;;;;11.95;2.45;;;;;;;9.33;84.32;101709.50;5121276;27;20070;-71
2023/05/16 00:04:27;;;;;;;14.05;2.50;;;;;;;9.32;84.35;101702.50;5116126;27;20151;-73
2023/05/16 00:06:54;;;;;;;10.98;2.45;;;;;;;9.30;84.33;101705.16;5117799;27;20039;-71
2023/05/16 00:09:21;;;;;;;15.85;2.83;;;;;;;9.29;84.04;101708.66;5126980;27;20063;-73
2023/05/16 00:11:49;;;;;;;9.23;2.22;;;;;;;9.29;84.34;101708.66;5134871;27;20114;-71
2023/05/16 00:14:16;;;;;;;14.27;2.63;;;;;;;9.27;84.71;101707.81;5126538;27;20633;-70
2023/05/16 00:16:43;;;;;;;11.60;2.58;;;;;;;9.30;84.27;101713.06;5104438;27;20063;-71
2023/05/16 00:19:10;;;;;;;12.93;2.78;;;;;;;9.28;84.05;101716.56;5115884;27;20047;-72
2023/05/16 00:21:39;;;;;;;10.45;2.20;;;;;;;9.28;83.51;101713.94;5120954;27;20118;-72
2023/05/16 00:24:07;;;;;;;12.13;2.83;;;;;;;9.28;82.68;101714.81;5134330;27;20186;-72
2023/05/16 00:26:34;;;;;;;12.55;2.78;;;;;;;9.26;83.42;101713.97;5118956;27;20850;-71
2023/05/16 00:29:01;;;;;;;10.10;2.78;;;;;;;9.28;82.67;101714.81;5106171;27;20051;-70
2023/05/16 00:31:29;;;;;;;13.80;2.60;;;;;;;9.33;82.03;101718.25;5111361;27;20051;-70
2023/05/16 00:33:57;;;;;;;14.63;2.22;;;;;;;9.30;81.99;101718.31;5123527;27;20093;-70
2023/05/16 00:36:24;;;;;;;13.82;2.58;;;;;;;9.31;81.78;101714.75;5137498;27;20036;-70
2023/05/16 00:38:51;;;;;;;11.00;2.70;;;;;;;9.35;81.27;101720.00;5108137;27;20840;-69
2023/05/16 00:41:18;;;;;;;14.13;2.72;;;;;;;9.36;80.86;101719.13;5138753;27;20046;-70
2023/05/16 00:43:45;;;;;;;10.52;2.40;;;;;;;9.32;81.04;101713.88;5115588;27;20927;-70
2023/05/16 00:46:12;;;;;;;8.57;2.40;;;;;;;9.33;80.43;101718.25;5115895;27;20043;-72
2023/05/16 00:48:39;;;;;;;12.13;2.38;;;;;;;9.30;80.67;101718.31;5118872;27;20526;-72
2023/05/16 00:51:08;;;;;;;10.30;2.13;;;;;;;9.31;80.68;101713.91;5123325;27;21404;-72
2023/05/16 00:53:36;;;;;;;17.90;2.63;;;;;;;9.30;80.63;101718.31;5136098;27;20038;-72
2023/05/16 00:56:05;;;;;;;14.90;2.97;;;;;;;9.27;80.85;101718.34;5108335;27;20440;-72
2023/05/16 00:58:36;;;;;;;11.48;2.72;;;;;;;9.25;81.18;101722.75;5152019;27;20059;-72
2023/05/16 01:01:03;;;;;;;15.05;2.55;;;;;;;9.27;80.84;101723.59;5124939;27;20036;-72
2023/05/16 01:03:30;;;;;;;11.60;2.22;;;;;;;9.23;80.90;101713.97;5107686;27;20040;-71
2023/05/16 01:05:59;;;;;;;10.07;2.05;;;;;;;9.21;81.07;101718.38;5119284;27;20762;-71
2023/05/16 01:08:26;;;;;;;17.23;2.63;;;;;;;9.23;80.83;101726.28;5145654;27;20751;-71
2023/05/16 01:11:29;;;;;;;12.20;2.00;;;;;;;9.23;80.01;101726.28;5120288;27;20045;-71
2023/05/16 01:14:28;;;;;;;11.23;2.38;;;;;;;9.16;80.07;101728.09;5121547;27;20032;-72
2023/05/16 01:17:35;;;;;;;14.40;2.30;;;;;;;9.12;80.10;101729.91;5120419;27;20040;-72
2023/05/16 01:20:33;;;;;;;10.82;2.65;;;;;;;9.08;79.87;101729.94;5123276;27;20031;-73
2023/05/16 01:23:26;;;;;;;15.57;2.65;;;;;;;9.04;79.60;101739.63;5120956;27;20113;-73
2023/05/16 01:26:10;;;;;;;14.15;2.00;;;;;;;8.94;79.45;101723.03;5118505;27;20050;-72
2023/05/16 01:28:39;;;;;;;12.02;1.98;;;;;;;8.88;79.89;101736.25;5141896;27;20089;-73
2023/05/16 01:31:06;;;;;;;10.73;2.10;;;;;;;8.84;79.86;101734.53;5125011;27;20562;-74
2023/05/16 01:33:33;;;;;;;16.60;2.65;;;;;;;8.78;80.09;101731.97;5126766;27;20443;-73
2023/05/16 01:36:10;;;;;;;10.35;2.40;;;;;;;8.74;80.00;101728.50;5128175;27;20036;-73
2023/05/16 01:38:48;;;;;;;12.75;2.78;;;;;;;8.68;79.91;101728.53;5134457;27;20047;-72
2023/05/16 01:42:01;;;;;;;12.43;1.95;;;;;;;8.63;80.03;101731.19;5131617;27;20089;-72
2023/05/16 01:44:36;;;;;;;11.35;2.10;;;;;;;8.54;80.33;101728.66;5124243;27;20070;-70
2023/05/16 01:47:12;;;;;;;13.45;2.28;;;;;;;8.50;80.66;101733.06;5136946;27;20092;-71
2023/05/16 01:49:53;;;;;;;11.05;2.13;;;;;;;8.48;80.47;101734.81;5110115;27;20123;-71
2023/05/16 01:52:51;;;;;;;11.75;2.00;;;;;;;8.41;80.67;101740.97;5132923;27;20089;-71
2023/05/16 01:55:42;;;;;;;9.90;2.42;;;;;;;8.36;80.97;101738.38;5114126;27;20043;-72
2023/05/16 01:58:12;;;;;;;7.65;1.75;;;;;;;8.30;80.89;101748.91;5094942;27;21089;-71
2023/05/16 02:00:40;;;;;;;10.63;2.22;;;;;;;8.26;80.86;101757.72;5125153;27;20036;-71
2023/05/16 02:03:08;;;;;;;9.88;1.98;;;;;;;8.19;80.88;101746.34;5123448;27;20047;-72
2023/05/16 02:05:35;;;;;;;15.40;2.38;;;;;;;8.15;81.05;101756.91;5116856;27;20099;-71
2023/05/16 02:08:03;;;;;;;13.30;2.13;;;;;;;8.10;81.20;101749.03;5115770;27;20113;-72
2023/05/16 02:10:31;;;;;;;12.23;2.50;;;;;;;8.06;81.33;101757.81;5137986;27;20028;-71
2023/05/16 02:12:58;;;;;;;13.52;2.35;;;;;;;8.03;81.32;101755.22;5122561;27;20219;-72
2023/05/16 02:15:25;;;;;;;10.60;2.45;;;;;;;8.04;81.21;101759.56;5142193;27;20040;-71
2023/05/16 02:17:53;;;;;;;10.07;1.90;;;;;;;8.01;81.28;101756.97;5141402;27;20101;-71
2023/05/16 02:20:20;;;;;;;13.98;2.10;;;;;;;7.96;81.11;101764.88;5123758;27;20111;-71
2023/05/16 02:22:48;;;;;;;10.85;2.15;;;;;;;7.93;81.46;101767.50;5113096;27;20043;-71
2023/05/16 02:25:16;;;;;;;15.77;2.40;;;;;;;7.88;81.17;101766.66;5136714;27;20042;-72
2023/05/16 02:27:43;;;;;;;12.48;2.75;;;;;;;7.84;81.50;101762.28;5117064;27;20036;-72
2023/05/16 02:30:11;;;;;;;14.48;2.60;;;;;;;7.81;81.87;101773.69;5141878;27;20040;-72
2023/05/16 02:32:39;;;;;;;9.85;2.47;;;;;;;7.79;81.95;101767.56;5156965;27;20043;-72
2023/05/16 02:35:07;;;;;;;12.07;2.17;;;;;;;7.77;81.74;101771.94;5118102;27;20036;-71
2023/05/16 02:37:34;;;;;;;16.13;3.15;;;;;;;7.72;82.17;101768.47;5141806;27;20159;-72
2023/05/16 02:40:06;;;;;;;11.02;2.42;;;;;;;7.68;82.51;101767.59;5118958;27;20043;-71
2023/05/16 02:42:35;;;;;;;11.18;2.28;;;;;;;7.67;82.61;101772.84;5105475;27;20056;-71
2023/05/16 02:45:03;;;;;;;12.50;2.50;;;;;;;7.66;82.73;101781.59;5110850;27;20044;-71
2023/05/16 02:47:30;;;;;;;15.93;2.20;;;;;;;7.64;82.79;101783.34;5124687;27;20042;-71
2023/05/16 02:49:59;;;;;;;13.27;2.15;;;;;;;7.63;83.05;101795.63;5116220;27;20534;-72
2023/05/16 02:52:26;;;;;;;13.50;2.10;;;;;;;7.60;83.41;101791.25;5121763;27;20052;-73
2023/05/16 02:54:54;;;;;;;13.38;2.22;;;;;;;7.58;83.41;101800.88;5110398;27;20032;-72
2023/05/16 02:57:40;;;;;;;19.50;2.80;;;;;;;7.55;83.72;101805.25;5115484;27;20032;-72
2023/05/16 03:00:13;;;;;;;14.52;2.40;;;;;;;7.51;83.69;101804.41;5125710;27;20123;-72
2023/05/16 03:02:42;;;;;;;15.05;2.58;;;;;;;7.49;83.97;101806.16;5127551;27;20040;-72
2023/05/16 03:05:10;;;;;;;14.48;2.65;;;;;;;7.49;84.06;101808.78;5142181;27;20080;-72
2023/05/16 03:07:38;;;;;;;20.48;3.30;;;;;;;7.46;84.36;101800.91;5128639;27;20042;-72
2023/05/16 03:10:06;;;;;;;18.67;2.45;;;;;;;7.43;84.33;101799.16;5127211;27;20844;-72
2023/05/16 03:12:33;;;;;;;18.00;2.38;;;;;;;7.44;84.46;101802.66;5130752;27;20115;-73
2023/05/16 03:15:00;;;;;;;18.70;2.90;;;;;;;7.45;84.96;101802.66;5122533;27;20032;-72
2023/05/16 03:17:28;;;;;;;15.90;3.13;;;;;;;7.54;85.57;101806.13;5119323;27;21201;-73
2023/05/16 03:19:56;;;;;;;15.27;2.90;;;;;;;7.64;85.61;101810.47;5120834;27;20046;-72
2023/05/16 03:22:23;;;;;;;17.77;2.55;;;;;;;7.68;85.65;101809.59;5113022;27;20120;-72
2023/05/16 03:24:50;;;;;;;13.80;2.33;;;;;;;7.79;85.67;101817.44;5109407;27;20052;-72
2023/05/16 03:27:17;;;;;;;16.08;2.78;;;;;;;7.83;85.41;101808.69;5127550;27;20070;-72
2023/05/16 03:29:44;;;;;;;15.20;3.03;;;;;;;7.91;85.33;101821.78;5122556;27;20047;-72
2023/05/16 03:32:11;;;;;;;16.40;2.70;;;;;;;7.92;85.32;101820.91;5122104;27;20032;-72
2023/05/16 03:34:39;;;;;;;17.45;3.25;;;;;;;7.94;85.25;101819.13;5129273;27;20121;-72
2023/05/16 03:37:07;;;;;;;15.85;2.58;;;;;;;7.98;85.46;101825.25;5121628;27;20475;-71
2023/05/16 03:39:34;;;;;;;13.43;2.80;;;;;;;8.00;85.52;101826.13;5124597;27;20049;-71
2023/05/16 03:42:01;;;;;;;13.43;2.60;;;;;;;8.02;85.33;101827.84;5126679;27;20033;-71
2023/05/16 03:44:28;;;;;;;12.40;2.72;;;;;;;8.06;85.52;101828.72;5125507;27;20114;-71
2023/05/16 03:46:55;;;;;;;14.02;2.83;;;;;;;8.15;85.85;101840.94;5128778;27;20517;-71
2023/05/16 03:49:27;;;;;;;15.02;2.35;;;;;;;8.22;85.51;101842.66;5118248;27;20117;-72
2023/05/16 03:51:54;;;;;;;15.82;2.42;;;;;;;8.27;85.20;101838.28;5110188;27;20036;-71
2023/05/16 03:54:21;;;;;;;23.35;4.15;;;;;;;8.35;84.54;101840.84;5133867;27;20036;-71
2023/05/16 03:56:48;;;;;;;19.52;3.25;;;;;;;8.37;84.26;101844.34;5121468;27;20710;-71
2023/05/16 03:59:15;;;;;;;18.63;3.05;;;;;;;8.38;84.11;101833.84;5122399;27;20081;-71
2023/05/16 04:01:42;;;;;;;11.13;2.17;;;;;;;8.38;83.69;101836.47;5113355;27;20070;-70
2023/05/16 04:04:09;;;;;;;16.23;2.97;;;;;;;8.38;83.60;101836.47;5108308;27;20046;-71
2023/05/16 04:06:36;;;;;;;13.55;2.67;;;;;;;8.41;83.65;101848.72;5135930;27;20051;-70
2023/05/16 04:09:03;;;;;;;15.02;3.35;;;;;;;8.46;83.82;101844.28;5106020;27;20572;-71
2023/05/16 04:11:31;;;;;;;11.52;3.08;;;;;;;8.51;83.89;101855.69;5124699;27;20036;-71
2023/05/16 04:14:00;;;;;;;12.93;3.00;;;;;;;8.52;83.95;101848.66;5140336;27;20396;-71
2023/05/16 04:16:27;;;;;;;11.73;2.80;;;;;;;8.50;84.25;101851.31;5142961;27;20039;-70
2023/05/16 04:18:55;;;;;;;12.63;2.28;;;;;;;8.50;84.54;101858.31;5133620;27;20105;-71
2023/05/16 04:21:23;;;;;;;36.03;4.65;;;;;;;8.51;84.70;101857.44;5121890;27;20512;-71
2023/05/16 04:23:50;;;;;;;14.40;3.10;;;;;;;8.55;85.24;101864.44;5114923;27;20067;-70
2023/05/16 04:26:17;;;;;;;18.10;3.10;;;;;;;8.61;85.14;101863.53;5135186;27;20052;-71
2023/05/16 04:28:46;;;;;;;17.27;3.33;;;;;;;8.63;85.57;101861.78;5112888;27;20051;-71
2023/05/16 04:31:14;;;;;;;12.00;2.53;;;;;;;8.62;85.86;101863.50;5120821;27;20050;-71
2023/05/16 04:33:41;;;;;;;12.70;2.90;;;;;;;8.64;85.86;101874.91;5124187;27;20081;-71
2023/05/16 04:36:08;;;;;;;12.73;2.72;;;;;;;8.63;85.90;101865.25;5126383;27;20045;-71
2023/05/16 04:38:35;;;;;;;13.40;2.60;;;;;;;8.71;85.77;101873.09;5120480;27;20546;-71
2023/05/16 04:41:02;;;;;;;12.45;2.50;;;;;;;8.80;85.71;101867.78;5138364;27;20064;-71
2023/05/16 04:43:29;;;;;;;23.50;3.13;;;;;;;8.82;85.65;101873.91;5126487;27;20040;-71
2023/05/16 04:45:57;;;;;;;22.27;3.55;;;;;;;8.84;85.60;101876.53;5138629;27;20951;-71
2023/05/16 04:48:24;;;;;;;14.30;2.75;;;;;;;8.88;85.67;101880.91;5140209;27;20043;-71
2023/05/16 04:50:51;;;;;;;16.80;2.95;;;;;;;8.96;85.59;101886.06;5124314;27;20038;-71
2023/05/16 04:53:18;;;;;;;13.20;2.58;;;;;;;9.03;84.87;101885.19;5120636;27;20043;-72
2023/05/16 04:55:46;;;;;;;14.20;2.60;;;;;;;9.10;84.50;101886.00;5111224;27;20055;-71
2023/05/16 04:58:13;;;;;;;13.52;2.90;;;;;;;9.13;84.23;101883.34;5115216;27;20036;-70
2023/05/16 05:00:40;;;;;;;15.82;3.00;;;;;;;9.17;83.96;101891.19;5114532;27;20500;-69
2023/05/16 05:03:07;;;;;;;22.25;2.92;;;;;;;9.24;83.99;101889.38;5117381;27;20513;-69
2023/05/16 05:05:35;;;;;;;9.57;2.60;;;;;;;9.30;83.70;101902.50;5131656;27;20078;-69
2023/05/16 05:08:03;;;;;;;19.20;2.92;;;;;;;9.36;83.14;101896.28;5120426;27;20875;-70
2023/05/16 05:10:30;;;;;;;15.85;2.97;;;;;;;9.48;82.60;101898.84;5137964;27;20048;-70
2023/05/16 05:12:57;;;;;;;15.73;2.65;;;;;;;9.60;81.80;101910.16;5118946;27;20040;-70
2023/05/16 05:15:24;;;;;;;15.63;3.75;;;;;;;9.90;80.46;101908.09;5123741;27;20481;-69
2023/05/16 05:17:52;;;;;;;14.98;2.85;;;;;;;10.82;76.59;101898.22;5106459;27;20166;-70
2023/05/16 05:20:19;;;;;;;10.88;2.08;;;;;;;11.21;74.78;101892.34;5120943;27;20046;-70
2023/05/16 05:22:46;;;;;;;12.60;2.53;;;;;;;11.43;73.54;101898.16;5140513;27;21374;-70
2023/05/16 05:25:14;;;;;;;11.85;2.28;;;;;;;11.57;73.19;101894.38;5121079;27;20039;-70
2023/05/16 05:27:41;;;;;;;25.38;3.55;;;;;;;11.77;71.71;101891.38;5127012;27;20082;-69
2023/05/16 05:30:09;;;;;;;12.05;2.00;;;;;;;12.15;70.79;101899.53;5122321;27;20062;-69
2023/05/16 05:32:36;;;;;;;17.75;2.58;;;;;;;14.34;64.42;101895.06;5119309;27;20044;-70
2023/05/16 05:35:04;;;;;;;10.35;1.77;;;;;;;16.15;59.22;101900.69;5121990;27;20039;-69
2023/05/16 05:37:31;;;;;;;13.25;2.40;;;;;;;17.60;54.73;101897.69;5125063;27;20044;-69
2023/05/16 05:39:58;;;;;;;9.18;1.77;;;;;;;18.70;49.20;101906.06;5125761;27;20160;-69
2023/05/16 05:42:25;;;;;;;11.15;1.80;;;;;;;19.42;46.97;101896.34;5125235;27;20040;-69
2023/05/16 05:44:52;;;;;;;10.55;2.40;;;;;;;19.97;45.52;101907.81;5139412;27;20121;-69
2023/05/16 05:47:20;;;;;;;8.07;1.42;;;;;;;20.54;43.38;101903.84;5118554;27;20032;-69
2023/05/16 05:49:47;;;;;;;7.20;1.50;;;;;;;20.93;42.20;101906.13;5122006;27;20051;-69
2023/05/16 05:52:14;;;;;;;10.48;1.90;;;;;;;21.33;40.86;101904.75;5125678;27;20031;-69
2023/05/16 05:54:41;;;;;;;6.88;1.77;;;;;;;21.34;38.79;101915.38;5126813;27;20096;-69
2023/05/16 05:57:08;;;;;;;7.53;1.48;;;;;;;19.03;43.25;101914.28;5125462;27;20032;-69
2023/05/16 05:59:35;;;;;;;9.55;1.75;;;;;;;19.38;43.23;101913.50;5130801;27;20133;-69
2023/05/16 06:02:02;;;;;;;13.38;2.28;;;;;;;17.38;47.36;101925.25;5139795;27;20513;-69
2023/05/16 06:04:29;;;;;;;16.13;2.05;;;;;;;15.79;49.96;101922.34;5141656;27;20169;-69
2023/05/16 06:06:56;;;;;;;13.48;2.05;;;;;;;14.61;54.02;101919.91;5136459;27;20078;-69
2023/05/16 06:09:23;;;;;;;12.75;2.30;;;;;;;13.75;57.01;101928.53;5127237;27;20047;-69
2023/05/16 06:11:50;;;;;;;7.75;1.73;;;;;;;13.16;58.32;101929.94;5129106;27;20336;-69
2023/05/16 06:14:19;;;;;;;9.43;2.05;;;;;;;12.72;60.09;101932.69;5119570;27;20044;-69
2023/05/16 06:16:46;;;;;;;22.08;3.70;;;;;;;12.41;61.47;101936.00;5115500;27;20039;-69
2023/05/16 06:19:14;;;;;;;41.88;3.65;;;;;;;12.19;62.36;101933.78;5113829;27;20036;-69
2023/05/16 06:21:42;;;;;;;15.55;2.17;;;;;;;11.95;64.07;101950.97;5108669;27;20154;-69
2023/05/16 06:24:11;;;;;;;20.05;3.05;;;;;;;11.97;64.78;101949.13;5109175;27;20036;-69
2023/05/16 06:26:38;;;;;;;11.55;2.05;;;;;;;12.20;64.28;101945.22;5112134;27;20517;-69
2023/05/16 06:29:05;;;;;;;17.75;2.50;;;;;;;12.24;64.35;101944.28;5129926;27;20124;-69
2023/05/16 06:31:32;;;;;;;12.05;2.10;;;;;;;12.13;64.89;101948.91;5123457;27;20040;-69
2023/05/16 06:33:59;;;;;;;9.00;2.10;;;;;;;12.00;65.37;101949.13;5123443;27;20044;-69
2023/05/16 06:36:26;;;;;;;14.38;2.58;;;;;;;11.94;65.50;101954.50;5145171;27;20506;-69
2023/05/16 06:38:53;;;;;;;10.18;1.60;;;;;;;11.88;65.21;101950.19;5130943;27;20032;-69
2023/05/16 06:41:20;;;;;;;10.95;2.17;;;;;;;11.91;65.60;101954.53;5147429;27;20767;-69
2023/05/16 06:43:48;;;;;;;17.17;2.35;;;;;;;11.86;65.61;101954.63;5131628;27;20113;-69
2023/05/16 06:46:15;;;;;;;11.35;1.88;;;;;;;11.99;65.80;101944.72;5109337;27;20066;-69
2023/05/16 06:48:42;;;;;;;13.32;2.42;;;;;;;12.16;65.57;101949.69;5119595;27;20089;-69
2023/05/16 06:51:09;;;;;;;7.07;1.80;;;;;;;12.28;64.92;101951.22;5149344;27;20047;-68
2023/05/16 06:53:36;;;;;;;22.70;2.33;;;;;;;12.26;65.52;101958.31;5165812;27;20040;-69
2023/05/16 06:56:03;;;;;;;10.52;1.88;;;;;;;12.32;64.31;101946.75;5150139;27;21001;-69
2023/05/16 06:58:30;;;;;;;9.38;1.83;;;;;;;12.19;64.02;101952.31;5127135;27;20032;-69
2023/05/16 07:00:57;;;;;;;10.63;1.98;;;;;;;12.09;64.43;101948.09;5130498;27;20542;-69
2023/05/16 07:03:25;;;;;;;11.43;1.80;;;;;;;11.99;64.06;101957.09;5151374;27;20423;-69
2023/05/16 07:05:52;;;;;;;9.77;1.88;;;;;;;12.23;63.38;101950.47;5147684;27;20059;-69
2023/05/16 07:08:19;;;;;;;6.78;1.52;;;;;;;12.49;62.92;101954.34;5149619;27;20576;-69
2023/05/16 07:10:46;;;;;;;16.67;2.05;;;;;;;12.46;63.14;101954.44;5166356;27;20035;-69
2023/05/16 07:13:13;;;;;;;10.80;1.92;;;;;;;12.52;62.22;101955.16;5149522;27;20069;-69
2023/05/16 07:15:40;;;;;;;9.40;1.90;;;;;;;12.53;62.13;101961.31;5150226;27;20885;-69
2023/05/16 07:18:07;;;;;;;11.85;2.15;;;;;;;12.48;63.17;101963.19;5148330;27;20043;-68
2023/05/16 07:20:34;;;;;;;14.48;1.77;;;;;;;12.43;62.81;101953.59;5110991;27;20036;-68
2023/05/16 07:23:01;;;;;;;11.13;2.85;;;;;;;12.40;61.92;101963.34;5109034;28;20622;-68
2023/05/16 07:25:29;;;;;;;8.60;1.90;;;;;;;12.27;62.17;101963.59;5108596;27;20503;-69
2023/05/16 07:27:56;;;;;;;8.15;1.50;;;;;;;12.16;62.10;101965.56;5120982;27;20135;-68
2023/05/16 07:30:23;;;;;;;9.52;1.55;;;;;;;12.27;61.76;101976.81;5129906;27;20631;-68
2023/05/16 07:32:50;;;;;;;17.42;2.45;;;;;;;12.49;61.56;101968.44;5134442;27;20502;-69
2023/05/16 07:35:17;;;;;;;7.78;1.27;;;;;;;12.95;60.35;101973.66;5148005;27;20498;-68
2023/05/16 07:37:44;;;;;;;10.25;1.52;;;;;;;13.22;57.93;101979.25;5108626;28;20043;-69
2023/05/16 07:40:12;;;;;;;15.65;1.90;;;;;;;13.28;57.41;101974.66;5107878;27;21140;-68
2023/05/16 07:42:39;;;;;;;11.05;1.50;;;;;;;13.35;56.96;101984.22;5108848;27;20056;-69
2023/05/16 07:45:07;;;;;;;12.98;1.40;;;;;;;13.44;55.91;101971.69;5108299;27;20064;-69
2023/05/16 07:47:34;;;;;;;5.72;1.30;;;;;;;13.41;56.13;101964.69;5131133;27;20152;-70
2023/05/16 07:50:02;;;;;;;9.70;1.48;;;;;;;13.32;56.38;101972.81;5131752;27;20047;-69
2023/05/16 07:52:29;;;;;;;6.55;1.20;;;;;;;13.48;57.02;101976.00;5108261;27;20098;-69
2023/05/16 07:54:57;;;;;;;12.75;1.58;;;;;;;13.45;57.13;101966.34;5123747;27;20048;-70
2023/05/16 07:57:24;;;;;;;10.40;1.20;;;;;;;13.49;57.75;101970.66;5119985;27;20475;-70
2023/05/16 07:59:51;;;;;;;7.72;1.27;;;;;;;13.62;56.96;101971.22;5129070;27;20872;-70
2023/05/16 08:02:19;;;;;;;8.70;1.50;;;;;;;13.58;56.26;101979.28;5128862;27;20040;-69
2023/05/16 08:04:47;;;;;;;8.25;1.10;;;;;;;13.41;55.35;101971.75;5135446;27;20519;-70
2023/05/16 08:07:14;;;;;;;5.13;1.50;;;;;;;13.15;55.69;101971.44;5148703;27;20045;-70
2023/05/16 08:09:41;;;;;;;41.33;3.63;;;;;;;12.95;56.55;101971.00;5150162;27;20637;-69
2023/05/16 08:12:09;;;;;;;10.20;1.25;;;;;;;12.77;55.52;101978.44;5147972;27;20050;-69
2023/05/16 08:14:36;;;;;;;9.88;2.20;;;;;;;12.69;56.25;101968.03;5149659;27;20617;-70
2023/05/16 08:17:03;;;;;;;10.13;1.58;;;;;;;12.92;55.25;101977.25;5164717;27;20517;-69
2023/05/16 08:19:31;;;;;;;8.95;1.60;;;;;;;13.20;55.43;101969.56;5147118;27;20066;-69
2023/05/16 08:21:58;;;;;;;9.13;1.42;;;;;;;13.46;54.96;101970.72;5148236;27;20031;-69
2023/05/16 08:24:25;;;;;;;7.93;1.63;;;;;;;13.46;54.17;101961.94;5149103;27;20558;-70
2023/05/16 08:26:53;;;;;;;4.53;0.90;;;;;;;13.35;53.26;101973.63;5141073;27;20944;-69
2023/05/16 08:29:20;;;;;;;3.58;1.00;;;;;;;13.19;53.84;101972.22;5123454;27;20032;-70
2023/05/16 08:31:47;;;;;;;7.03;1.00;;;;;;;13.12;52.76;101967.97;5107471;27;20486;-69
2023/05/16 08:34:14;;;;;;;4.45;1.00;;;;;;;13.11;53.72;101969.78;5114987;27;20132;-69
2023/05/16 08:36:41;;;;;;;6.40;1.10;;;;;;;13.30;53.87;101970.19;5127846;27;20519;-70
2023/05/16 08:39:10;;;;;;;5.70;1.05;;;;;;;13.36;54.13;101969.19;5112724;27;20032;-69
2023/05/16 08:41:38;;;;;;;4.53;0.80;;;;;;;13.57;53.52;101970.47;5106209;28;20042;-70
2023/05/16 08:44:05;;;;;;;7.57;1.13;;;;;;;13.93;53.82;101972.22;5123387;27;20040;-69
2023/05/16 08:46:36;;;;;;;8.43;1.02;;;;;;;14.39;53.25;101965.66;5105978;28;20127;-70
2023/05/16 08:49:06;;;;;;;4.18;0.82;;;;;;;14.68;51.80;101960.44;5134521;27;20059;-70
2023/05/16 08:51:37;;;;;;;5.55;1.00;;;;;;;14.65;51.06;101971.97;5164118;27;20036;-69
2023/05/16 08:54:12;;;;;;;7.30;1.30;;;;;;;14.42;50.98;101970.00;5148324;27;20754;-70
2023/05/16 08:56:41;;;;;;;5.53;1.10;;;;;;;14.11;50.71;101969.09;5143079;27;20047;-69
2023/05/16 08:59:10;;;;;;;11.85;1.92;;;;;;;13.80;51.27;101969.91;5123897;27;20494;-70
2023/05/16 09:01:38;;;;;;;5.85;1.02;;;;;;;13.54;51.99;101973.19;5128006;27;20031;-70
2023/05/16 09:04:08;;;;;;;15.38;1.60;;;;;;;13.35;53.03;101975.38;5127641;27;20040;-70
2023/05/16 09:06:36;;;;;;;5.28;0.90;;;;;;;13.44;53.26;101971.69;5126032;27;20130;-70
2023/05/16 09:09:06;;;;;;;8.90;0.93;;;;;;;13.72;52.54;101969.22;5123483;27;20109;-70
2023/05/16 09:11:38;;;;;;;5.00;0.93;;;;;;;13.99;50.87;101964.09;5116644;27;20035;-69
2023/05/16 09:14:08;;;;;;;;;;;;;;;14.35;50.30;101963.13;5122891;27;20036;-70
2023/05/16 09:16:35;;;;;;;6.07;1.00;;;;;;;14.79;49.02;101958.34;5127544;27;20340;-70
2023/05/16 09:19:03;;;;;;;9.45;1.30;;;;;;;14.87;50.31;101958.09;5128206;27;20051;-70
2023/05/16 09:21:33;;;;;;;4.25;0.80;;;;;;;14.76;50.43;101961.09;5127238;27;20127;-70
2023/05/16 09:24:07;;;;;;;6.60;0.88;;;;;;;14.56;49.23;101966.94;5124005;27;20047;-70
2023/05/16 09:26:37;;;;;;;5.53;0.80;;;;;;;14.21;51.44;101974.97;5143267;27;20040;-70
2023/05/16 09:29:11;;;;;;;5.78;0.82;;;;;;;13.98;53.26;101979.16;5124543;27;20123;-69
2023/05/16 09:31:39;;;;;;;;;;;;;;;13.87;53.70;101983.88;5124632;27;20083;-70
2023/05/16 09:34:12;;;;;;;6.97;0.90;;;;;;;13.90;52.60;101993.50;5130475;27;20409;-70
2023/05/16 09:36:40;;;;;;;3.08;0.57;;;;;;;13.93;52.50;101988.13;5124779;27;20043;-69
2023/05/16 09:39:11;;;;;;;3.15;0.60;;;;;;;14.19;51.81;101986.56;5118912;27;20042;-70
2023/05/16 09:41:38;;;;;;;4.47;0.70;;;;;;;14.32;51.60;101984.44;5128854;27;20532;-70
2023/05/16 09:44:05;;;;;;;3.63;0.50;;;;;;;14.50;50.83;101983.91;5130177;27;20675;-69
2023/05/16 09:46:35;;;;;;;3.97;0.68;;;;;;;14.61;50.44;101980.97;5135534;27;20046;-70
2023/05/16 09:49:03;;;;;;;4.25;0.77;;;;;;;14.56;49.23;101985.50;5116185;27;20032;-70
2023/05/16 09:51:30;;;;;;;4.57;0.50;;;;;;;14.54;49.55;101995.31;5128632;27;20054;-70
2023/05/16 09:53:59;;;;;;;14.77;1.50;;;;;;;14.58;49.93;101989.00;5123816;27;20071;-69
2023/05/16 09:56:27;;;;;;;7.03;0.70;;;;;;;14.65;47.88;101990.56;5123462;27;20044;-70
2023/05/16 09:58:54;;;;;;;7.18;0.80;;;;;;;14.54;47.46;101990.03;5130868;27;20043;-70
2023/05/16 10:01:22;;;;;;;8.60;1.08;;;;;;;14.34;48.13;101985.25;5130861;27;20061;-70
2023/05/16 10:03:49;;;;;;;6.47;0.85;;;;;;;14.27;48.66;101996.06;5130017;27;20042;-70
2023/05/16 10:06:17;;;;;;;2.83;0.75;;;;;;;14.40;47.47;101988.63;5135022;27;20094;-70
2023/05/16 10:08:45;;;;;;;7.55;1.00;;;;;;;14.47;47.04;101991.97;5139774;27;20612;-70
2023/05/16 10:11:14;;;;;;;5.07;0.85;;;;;;;14.58;47.85;101989.88;5112958;27;20504;-70
2023/05/16 10:13:41;;;;;;;7.53;1.30;;;;;;;14.70;47.21;101977.22;5119022;27;20040;-70
2023/05/16 10:16:13;;;;;;;3.90;1.00;;;;;;;14.86;46.17;101973.16;5138199;27;20040;-70
2023/05/16 10:18:42;;;;;;;2.30;0.68;;;;;;;15.04;46.49;101974.41;5125683;27;20043;-70
2023/05/16 10:21:14;;;;;;;6.32;0.85;;;;;;;15.22;46.32;101974.72;5117162;27;20534;-70
2023/05/16 10:23:42;;;;;;;5.15;0.90;;;;;;;15.18;45.46;101976.63;5119326;27;20032;-70
2023/05/16 10:26:12;;;;;;;6.00;1.00;;;;;;;15.35;45.68;101972.53;5123741;27;20122;-72
2023/05/16 10:28:41;;;;;;;6.43;0.80;;;;;;;15.61;46.43;101970.81;5128015;27;20496;-70
2023/05/16 10:31:10;;;;;;;5.93;1.00;;;;;;;15.79;45.13;101969.31;5131699;27;20058;-71
2023/05/16 10:33:39;;;;;;;5.20;1.20;;;;;;;15.95;44.27;101954.59;5128752;27;20043;-73
2023/05/16 10:36:08;;;;;;;6.15;0.93;;;;;;;16.26;44.06;101965.94;5130268;27;20132;-70
2023/05/16 10:38:38;;;;;;;3.85;0.90;;;;;;;16.05;43.76;101963.13;5139256;27;20032;-71
2023/05/16 10:41:06;;;;;;;7.32;1.05;;;;;;;16.03;44.08;101951.66;5116316;27;20047;-70
2023/05/16 10:43:33;;;;;;;5.75;0.93;;;;;;;16.09;43.71;101948.78;5126559;27;20114;-69
2023/05/16 10:46:09;;;;;;;6.40;0.70;;;;;;;16.01;43.79;101944.66;5126832;27;20035;-70
2023/05/16 10:48:39;;;;;;;4.75;0.85;;;;;;;15.97;43.52;101954.53;5130034;27;20054;-69
2023/05/16 10:51:21;;;;;;;1.27;0.50;;;;;;;16.37;41.56;101938.94;5145623;27;20513;-69
2023/05/16 10:53:53;;;;;;;5.68;0.70;;;;;;;16.68;39.83;101945.75;5127527;27;20652;-70
2023/05/16 10:56:26;;;;;;;4.13;0.82;;;;;;;16.68;40.70;101935.97;5127842;27;20036;-70
2023/05/16 10:58:55;;;;;;;12.68;1.40;;;;;;;16.60;42.03;101954.88;5122731;27;20036;-69
2023/05/16 11:01:28;;;;;;;6.90;1.00;;;;;;;16.27;43.71;101938.41;5142509;27;20086;-69
2023/05/16 11:03:55;;;;;;;4.50;1.00;;;;;;;15.78;43.13;101936.56;5143426;27;20051;-69
2023/05/16 11:06:44;;;;;;;8.05;1.33;;;;;;;15.60;43.85;101948.69;5108362;28;20121;-69
2023/05/16 11:09:14;;;;;;;10.90;1.20;;;;;;;15.87;44.30;101959.34;5106522;28;20036;-70
2023/05/16 11:11:45;;;;;;;4.78;0.68;;;;;;;16.10;42.38;101953.19;5109900;27;20161;-70
2023/05/16 11:14:36;;;;;;;7.00;0.93;;;;;;;16.36;42.44;101953.16;5117149;27;20024;-70
2023/05/16 11:17:12;;;;;;;8.07;1.17;;;;;;;16.49;42.11;101953.56;5127875;27;20043;-70
2023/05/16 11:19:46;;;;;;;10.07;1.05;;;;;;;16.67;40.99;101947.53;5130287;27;20040;-70
2023/05/16 11:22:21;;;;;;;10.38;1.50;;;;;;;16.49;40.93;101948.25;5144135;27;20055;-70
2023/05/16 11:25:00;;;;;;;4.45;0.70;;;;;;;16.26;42.24;101955.28;5127527;27;20128;-70
2023/05/16 11:27:29;;;;;;;4.35;0.77;;;;;;;16.14;41.03;101946.81;5128337;27;20134;-70
2023/05/16 11:30:05;;;;;;;2.90;0.60;;;;;;;15.96;41.78;101947.50;5141433;27;20523;-70
2023/05/16 11:32:35;;;;;;;4.68;0.80;;;;;;;15.78;42.28;101944.53;5139191;27;20047;-70
2023/05/16 11:35:04;;;;;;;17.00;1.13;;;;;;;15.81;41.82;101947.09;5145622;27;20536;-70